<?xml version="1.0" encoding="UTF-8" standalone="no" ?>
<gpx xmlns="http://www.topografix.com/GPX/1/1" creator="SentieriNatura" version="1.1" xmlns:xsi="http://www.w3.org/2001/XMLSchema-instance" xsi:schemaLocation="http://www.topografix.com/GPX/1/1 http://www.topografix.com/GPX/1/1/gpx.xsd">
<metadata>
<link href="http://www.sentierinatura.it">
<text>SentieriNatura</text>
</link>
<time>2003-11-16T17:12:46Z</time>
</metadata>
<wpt lat="46.5600166666667" lon="13.2925666666667">
<ele>1829</ele>
<name>Bivio 1</name>
<desc></desc>
<time>2003-08-24T08:35:47Z</time>
</wpt>
<trk>
<name>Anello del monte Corona da passo Pramollo</name>
<trkseg>
<trkpt lat="46.5575833333333" lon="13.2787166666667">
<ele>1528</ele>
<time>2003-08-24T07:25:29Z</time>
</trkpt>
<trkpt lat="46.5574833333333" lon="13.2788">
<ele>1531</ele>
<time>2003-08-24T07:28:04Z</time>
</trkpt>
<trkpt lat="46.5573833333333" lon="13.27895">
<ele>1531</ele>
<time>2003-08-24T07:28:42Z</time>
</trkpt>
<trkpt lat="46.5573" lon="13.2791833333333">
<ele>1532</ele>
<time>2003-08-24T07:29:01Z</time>
</trkpt>
<trkpt lat="46.5571666666667" lon="13.2793833333333">
<ele>1535</ele>
<time>2003-08-24T07:29:20Z</time>
</trkpt>
<trkpt lat="46.5570166666667" lon="13.2794666666667">
<ele>1538</ele>
<time>2003-08-24T07:29:40Z</time>
</trkpt>
<trkpt lat="46.5568666666667" lon="13.2796">
<ele>1541</ele>
<time>2003-08-24T07:30:01Z</time>
</trkpt>
<trkpt lat="46.5566833333333" lon="13.2797">
<ele>1543</ele>
<time>2003-08-24T07:30:23Z</time>
</trkpt>
<trkpt lat="46.5565333333333" lon="13.2797833333333">
<ele>1546</ele>
<time>2003-08-24T07:31:25Z</time>
</trkpt>
<trkpt lat="46.5563666666667" lon="13.2798666666667">
<ele>1552</ele>
<time>2003-08-24T07:31:52Z</time>
</trkpt>
<trkpt lat="46.5562333333333" lon="13.2799833333333">
<ele>1555</ele>
<time>2003-08-24T07:32:24Z</time>
</trkpt>
<trkpt lat="46.5560666666667" lon="13.2801166666667">
<ele>1558</ele>
<time>2003-08-24T07:32:48Z</time>
</trkpt>
<trkpt lat="46.5560166666667" lon="13.2803666666667">
<ele>1561</ele>
<time>2003-08-24T07:33:12Z</time>
</trkpt>
<trkpt lat="46.5560833333333" lon="13.2805666666667">
<ele>1564</ele>
<time>2003-08-24T07:33:37Z</time>
</trkpt>
<trkpt lat="46.5560833333333" lon="13.2807333333333">
<ele>1567</ele>
<time>2003-08-24T07:35:58Z</time>
</trkpt>
<trkpt lat="46.5559833333333" lon="13.28095">
<ele>1570</ele>
<time>2003-08-24T07:36:23Z</time>
</trkpt>
<trkpt lat="46.5558666666667" lon="13.2811666666667">
<ele>1573</ele>
<time>2003-08-24T07:36:46Z</time>
</trkpt>
<trkpt lat="46.5557666666667" lon="13.28135">
<ele>1576</ele>
<time>2003-08-24T07:37:21Z</time>
</trkpt>
<trkpt lat="46.5557" lon="13.2816166666667">
<ele>1578</ele>
<time>2003-08-24T07:37:44Z</time>
</trkpt>
<trkpt lat="46.5555666666667" lon="13.2817833333333">
<ele>1582</ele>
<time>2003-08-24T07:38:06Z</time>
</trkpt>
<trkpt lat="46.5554166666667" lon="13.2819333333333">
<ele>1584</ele>
<time>2003-08-24T07:38:27Z</time>
</trkpt>
<trkpt lat="46.5552666666667" lon="13.2820833333333">
<ele>1587</ele>
<time>2003-08-24T07:38:50Z</time>
</trkpt>
<trkpt lat="46.55515" lon="13.28225">
<ele>1589</ele>
<time>2003-08-24T07:39:13Z</time>
</trkpt>
<trkpt lat="46.55495" lon="13.2823">
<ele>1592</ele>
<time>2003-08-24T07:39:41Z</time>
</trkpt>
<trkpt lat="46.5547833333333" lon="13.28235">
<ele>1594</ele>
<time>2003-08-24T07:40:00Z</time>
</trkpt>
<trkpt lat="46.5545833333333" lon="13.2824">
<ele>1597</ele>
<time>2003-08-24T07:40:20Z</time>
</trkpt>
<trkpt lat="46.5544333333333" lon="13.2825166666667">
<ele>1600</ele>
<time>2003-08-24T07:40:41Z</time>
</trkpt>
<trkpt lat="46.5542666666667" lon="13.2826666666667">
<ele>1603</ele>
<time>2003-08-24T07:41:15Z</time>
</trkpt>
<trkpt lat="46.5541833333333" lon="13.2828">
<ele>1604</ele>
<time>2003-08-24T07:41:28Z</time>
</trkpt>
<trkpt lat="46.5541" lon="13.2830333333333">
<ele>1605</ele>
<time>2003-08-24T07:41:52Z</time>
</trkpt>
<trkpt lat="46.5540333333333" lon="13.2832833333333">
<ele>1604</ele>
<time>2003-08-24T07:42:08Z</time>
</trkpt>
<trkpt lat="46.5539666666667" lon="13.28355">
<ele>1605</ele>
<time>2003-08-24T07:42:24Z</time>
</trkpt>
<trkpt lat="46.55395" lon="13.2838">
<ele>1604</ele>
<time>2003-08-24T07:42:40Z</time>
</trkpt>
<trkpt lat="46.5539666666667" lon="13.2840666666667">
<ele>1605</ele>
<time>2003-08-24T07:43:27Z</time>
</trkpt>
<trkpt lat="46.5539833333333" lon="13.2843333333333">
<ele>1605</ele>
<time>2003-08-24T07:43:44Z</time>
</trkpt>
<trkpt lat="46.5540333333333" lon="13.2846166666667">
<ele>1606</ele>
<time>2003-08-24T07:44:00Z</time>
</trkpt>
<trkpt lat="46.5541333333333" lon="13.2848333333333">
<ele>1607</ele>
<time>2003-08-24T07:44:26Z</time>
</trkpt>
<trkpt lat="46.5542166666667" lon="13.2850666666667">
<ele>1607</ele>
<time>2003-08-24T07:44:42Z</time>
</trkpt>
<trkpt lat="46.5542666666667" lon="13.2853166666667">
<ele>1609</ele>
<time>2003-08-24T07:44:58Z</time>
</trkpt>
<trkpt lat="46.55435" lon="13.2855833333333">
<ele>1611</ele>
<time>2003-08-24T07:45:14Z</time>
</trkpt>
<trkpt lat="46.5544833333333" lon="13.2858">
<ele>1609</ele>
<time>2003-08-24T07:45:30Z</time>
</trkpt>
<trkpt lat="46.5545833333333" lon="13.2859833333333">
<ele>1610</ele>
<time>2003-08-24T07:45:44Z</time>
</trkpt>
<trkpt lat="46.5547" lon="13.2862">
<ele>1610</ele>
<time>2003-08-24T07:45:59Z</time>
</trkpt>
<trkpt lat="46.5547333333333" lon="13.2864666666667">
<ele>1612</ele>
<time>2003-08-24T07:46:15Z</time>
</trkpt>
<trkpt lat="46.5547166666667" lon="13.2867166666667">
<ele>1614</ele>
<time>2003-08-24T07:46:32Z</time>
</trkpt>
<trkpt lat="46.5548" lon="13.2868333333333">
<ele>1620</ele>
<time>2003-08-24T07:56:14Z</time>
</trkpt>
<trkpt lat="46.5549166666667" lon="13.28695">
<ele>1623</ele>
<time>2003-08-24T07:56:44Z</time>
</trkpt>
<trkpt lat="46.55495" lon="13.2872166666667">
<ele>1623</ele>
<time>2003-08-24T07:57:08Z</time>
</trkpt>
<trkpt lat="46.5551" lon="13.2873">
<ele>1628</ele>
<time>2003-08-24T07:58:13Z</time>
</trkpt>
<trkpt lat="46.5552333333333" lon="13.2874666666667">
<ele>1631</ele>
<time>2003-08-24T07:58:39Z</time>
</trkpt>
<trkpt lat="46.5553666666667" lon="13.2876166666667">
<ele>1636</ele>
<time>2003-08-24T07:59:12Z</time>
</trkpt>
<trkpt lat="46.5554833333333" lon="13.2878">
<ele>1640</ele>
<time>2003-08-24T07:59:46Z</time>
</trkpt>
<trkpt lat="46.5556333333333" lon="13.28785">
<ele>1645</ele>
<time>2003-08-24T08:00:16Z</time>
</trkpt>
<trkpt lat="46.55575" lon="13.28805">
<ele>1648</ele>
<time>2003-08-24T08:00:43Z</time>
</trkpt>
<trkpt lat="46.5559666666667" lon="13.28825">
<ele>1656</ele>
<time>2003-08-24T08:03:18Z</time>
</trkpt>
<trkpt lat="46.5560833333333" lon="13.2884333333333">
<ele>1662</ele>
<time>2003-08-24T08:03:50Z</time>
</trkpt>
<trkpt lat="46.5561666666667" lon="13.2886333333333">
<ele>1666</ele>
<time>2003-08-24T08:04:33Z</time>
</trkpt>
<trkpt lat="46.5563166666667" lon="13.28885">
<ele>1672</ele>
<time>2003-08-24T08:05:17Z</time>
</trkpt>
<trkpt lat="46.5563833333333" lon="13.2891">
<ele>1676</ele>
<time>2003-08-24T08:05:46Z</time>
</trkpt>
<trkpt lat="46.5564166666667" lon="13.2893666666667">
<ele>1679</ele>
<time>2003-08-24T08:06:13Z</time>
</trkpt>
<trkpt lat="46.5565" lon="13.28955">
<ele>1687</ele>
<time>2003-08-24T08:07:04Z</time>
</trkpt>
<trkpt lat="46.5565833333333" lon="13.2897666666667">
<ele>1693</ele>
<time>2003-08-24T08:07:53Z</time>
</trkpt>
<trkpt lat="46.5565833333333" lon="13.29">
<ele>1696</ele>
<time>2003-08-24T08:08:21Z</time>
</trkpt>
<trkpt lat="46.55665" lon="13.2902333333333">
<ele>1698</ele>
<time>2003-08-24T08:08:48Z</time>
</trkpt>
<trkpt lat="46.55675" lon="13.2904333333333">
<ele>1702</ele>
<time>2003-08-24T08:09:29Z</time>
</trkpt>
<trkpt lat="46.5568166666667" lon="13.2906666666667">
<ele>1708</ele>
<time>2003-08-24T08:10:03Z</time>
</trkpt>
<trkpt lat="46.5569833333333" lon="13.2908">
<ele>1713</ele>
<time>2003-08-24T08:10:58Z</time>
</trkpt>
<trkpt lat="46.5571" lon="13.2909666666667">
<ele>1716</ele>
<time>2003-08-24T08:11:29Z</time>
</trkpt>
<trkpt lat="46.5572333333333" lon="13.2911166666667">
<ele>1720</ele>
<time>2003-08-24T08:11:52Z</time>
</trkpt>
<trkpt lat="46.5573333333333" lon="13.2912">
<ele>1722</ele>
<time>2003-08-24T08:13:27Z</time>
</trkpt>
<trkpt lat="46.5574333333333" lon="13.2913166666667">
<ele>1724</ele>
<time>2003-08-24T08:15:59Z</time>
</trkpt>
<trkpt lat="46.5575833333333" lon="13.29135">
<ele>1725</ele>
<time>2003-08-24T08:16:21Z</time>
</trkpt>
<trkpt lat="46.5576333333333" lon="13.2915833333333">
<ele>1725</ele>
<time>2003-08-24T08:16:43Z</time>
</trkpt>
<trkpt lat="46.5578" lon="13.2916333333333">
<ele>1727</ele>
<time>2003-08-24T08:17:06Z</time>
</trkpt>
<trkpt lat="46.5579833333333" lon="13.29165">
<ele>1731</ele>
<time>2003-08-24T08:17:34Z</time>
</trkpt>
<trkpt lat="46.5581" lon="13.2917">
<ele>1737</ele>
<time>2003-08-24T08:18:39Z</time>
</trkpt>
<trkpt lat="46.5582833333333" lon="13.2917333333333">
<ele>1742</ele>
<time>2003-08-24T08:19:14Z</time>
</trkpt>
<trkpt lat="46.5584333333333" lon="13.2918833333333">
<ele>1745</ele>
<time>2003-08-24T08:19:47Z</time>
</trkpt>
<trkpt lat="46.55855" lon="13.2919833333333">
<ele>1752</ele>
<time>2003-08-24T08:20:26Z</time>
</trkpt>
<trkpt lat="46.5586666666667" lon="13.2920666666667">
<ele>1756</ele>
<time>2003-08-24T08:22:40Z</time>
</trkpt>
<trkpt lat="46.5586833333333" lon="13.2922833333333">
<ele>1760</ele>
<time>2003-08-24T08:23:59Z</time>
</trkpt>
<trkpt lat="46.5586333333333" lon="13.2925333333333">
<ele>1765</ele>
<time>2003-08-24T08:24:28Z</time>
</trkpt>
<trkpt lat="46.5585833333333" lon="13.29275">
<ele>1769</ele>
<time>2003-08-24T08:24:58Z</time>
</trkpt>
<trkpt lat="46.5586" lon="13.2928833333333">
<ele>1774</ele>
<time>2003-08-24T08:26:27Z</time>
</trkpt>
<trkpt lat="46.5587333333333" lon="13.2928333333333">
<ele>1779</ele>
<time>2003-08-24T08:27:33Z</time>
</trkpt>
<trkpt lat="46.55885" lon="13.2929">
<ele>1785</ele>
<time>2003-08-24T08:28:07Z</time>
</trkpt>
<trkpt lat="46.5589833333333" lon="13.2929833333333">
<ele>1790</ele>
<time>2003-08-24T08:28:41Z</time>
</trkpt>
<trkpt lat="46.55915" lon="13.2929833333333">
<ele>1796</ele>
<time>2003-08-24T08:29:29Z</time>
</trkpt>
<trkpt lat="46.5592666666667" lon="13.2931333333333">
<ele>1800</ele>
<time>2003-08-24T08:30:57Z</time>
</trkpt>
<trkpt lat="46.5593666666667" lon="13.29325">
<ele>1806</ele>
<time>2003-08-24T08:32:29Z</time>
</trkpt>
<trkpt lat="46.55955" lon="13.29315">
<ele>1814</ele>
<time>2003-08-24T08:33:00Z</time>
</trkpt>
<trkpt lat="46.55965" lon="13.2930333333333">
<ele>1819</ele>
<time>2003-08-24T08:33:56Z</time>
</trkpt>
<trkpt lat="46.5597833333333" lon="13.29285">
<ele>1824</ele>
<time>2003-08-24T08:34:52Z</time>
</trkpt>
<trkpt lat="46.55985" lon="13.2926666666667">
<ele>1826</ele>
<time>2003-08-24T08:35:18Z</time>
</trkpt>
<trkpt lat="46.5600166666667" lon="13.29255">
<ele>1829</ele>
<time>2003-08-24T08:35:47Z</time>
</trkpt>
<trkpt lat="46.5600333333333" lon="13.2926166666667">
<ele>1830</ele>
<time>2003-08-24T08:41:51Z</time>
</trkpt>
<trkpt lat="46.5600833333333" lon="13.2928166666667">
<ele>1837</ele>
<time>2003-08-24T08:42:25Z</time>
</trkpt>
<trkpt lat="46.5600833333333" lon="13.2929833333333">
<ele>1843</ele>
<time>2003-08-24T08:43:07Z</time>
</trkpt>
<trkpt lat="46.56015" lon="13.29315">
<ele>1851</ele>
<time>2003-08-24T08:43:49Z</time>
</trkpt>
<trkpt lat="46.5602166666667" lon="13.2933">
<ele>1859</ele>
<time>2003-08-24T08:44:36Z</time>
</trkpt>
<trkpt lat="46.5601833333333" lon="13.2934333333333">
<ele>1865</ele>
<time>2003-08-24T08:46:33Z</time>
</trkpt>
<trkpt lat="46.5601166666667" lon="13.2935833333333">
<ele>1872</ele>
<time>2003-08-24T08:47:36Z</time>
</trkpt>
<trkpt lat="46.5601" lon="13.2938">
<ele>1876</ele>
<time>2003-08-24T08:48:52Z</time>
</trkpt>
<trkpt lat="46.5600333333333" lon="13.29395">
<ele>1880</ele>
<time>2003-08-24T08:51:01Z</time>
</trkpt>
<trkpt lat="46.5599666666667" lon="13.2940333333333">
<ele>1886</ele>
<time>2003-08-24T08:54:51Z</time>
</trkpt>
<trkpt lat="46.5600833333333" lon="13.2941666666667">
<ele>1888</ele>
<time>2003-08-24T08:57:22Z</time>
</trkpt>
<trkpt lat="46.56025" lon="13.2941833333333">
<ele>1896</ele>
<time>2003-08-24T08:57:56Z</time>
</trkpt>
<trkpt lat="46.5603333333333" lon="13.2943333333333">
<ele>1905</ele>
<time>2003-08-24T08:58:39Z</time>
</trkpt>
<trkpt lat="46.5604" lon="13.2944833333333">
<ele>1909</ele>
<time>2003-08-24T08:59:48Z</time>
</trkpt>
<trkpt lat="46.5604" lon="13.2947166666667">
<ele>1914</ele>
<time>2003-08-24T09:02:25Z</time>
</trkpt>
<trkpt lat="46.56045" lon="13.2949833333333">
<ele>1918</ele>
<time>2003-08-24T09:02:57Z</time>
</trkpt>
<trkpt lat="46.56045" lon="13.2952333333333">
<ele>1923</ele>
<time>2003-08-24T09:03:34Z</time>
</trkpt>
<trkpt lat="46.5604" lon="13.2954666666667">
<ele>1928</ele>
<time>2003-08-24T09:04:05Z</time>
</trkpt>
<trkpt lat="46.5603166666667" lon="13.2956833333333">
<ele>1932</ele>
<time>2003-08-24T09:04:31Z</time>
</trkpt>
<trkpt lat="46.5602666666667" lon="13.2957666666667">
<ele>1937</ele>
<time>2003-08-24T09:06:19Z</time>
</trkpt>
<trkpt lat="46.5602666666667" lon="13.2959833333333">
<ele>1936</ele>
<time>2003-08-24T09:13:36Z</time>
</trkpt>
<trkpt lat="46.5602666666667" lon="13.2961333333333">
<ele>1933</ele>
<time>2003-08-24T09:14:18Z</time>
</trkpt>
<trkpt lat="46.56025" lon="13.2962166666667">
<ele>1931</ele>
<time>2003-08-24T09:15:29Z</time>
</trkpt>
<trkpt lat="46.56025" lon="13.2964166666667">
<ele>1926</ele>
<time>2003-08-24T09:15:59Z</time>
</trkpt>
<trkpt lat="46.5602666666667" lon="13.2966333333333">
<ele>1924</ele>
<time>2003-08-24T09:18:00Z</time>
</trkpt>
<trkpt lat="46.5603" lon="13.2968833333333">
<ele>1927</ele>
<time>2003-08-24T09:18:19Z</time>
</trkpt>
<trkpt lat="46.5603" lon="13.2970833333333">
<ele>1931</ele>
<time>2003-08-24T09:19:06Z</time>
</trkpt>
<trkpt lat="46.5603" lon="13.2973">
<ele>1936</ele>
<time>2003-08-24T09:20:07Z</time>
</trkpt>
<trkpt lat="46.5603" lon="13.29755">
<ele>1941</ele>
<time>2003-08-24T09:20:29Z</time>
</trkpt>
<trkpt lat="46.5602333333333" lon="13.2977666666667">
<ele>1945</ele>
<time>2003-08-24T09:20:50Z</time>
</trkpt>
<trkpt lat="46.5601" lon="13.2979666666667">
<ele>1950</ele>
<time>2003-08-24T09:21:13Z</time>
</trkpt>
<trkpt lat="46.5600166666667" lon="13.29805">
<ele>1952</ele>
<time>2003-08-24T09:22:09Z</time>
</trkpt>
<trkpt lat="46.5599666666667" lon="13.2981333333333">
<ele>1955</ele>
<time>2003-08-24T09:24:26Z</time>
</trkpt>
<trkpt lat="46.5599" lon="13.2982333333333">
<ele>1955</ele>
<time>2003-08-24T09:26:22Z</time>
</trkpt>
<trkpt lat="46.5598666666667" lon="13.2982666666667">
<ele>1955</ele>
<time>2003-08-24T09:28:59Z</time>
</trkpt>
<trkpt lat="46.5597833333333" lon="13.2984">
<ele>1954</ele>
<time>2003-08-24T09:36:53Z</time>
</trkpt>
<trkpt lat="46.5597333333333" lon="13.29865">
<ele>1950</ele>
<time>2003-08-24T09:37:16Z</time>
</trkpt>
<trkpt lat="46.55965" lon="13.29885">
<ele>1946</ele>
<time>2003-08-24T09:38:15Z</time>
</trkpt>
<trkpt lat="46.55955" lon="13.299">
<ele>1943</ele>
<time>2003-08-24T09:39:09Z</time>
</trkpt>
<trkpt lat="46.55945" lon="13.2991666666667">
<ele>1946</ele>
<time>2003-08-24T09:39:45Z</time>
</trkpt>
<trkpt lat="46.5593666666667" lon="13.2993666666667">
<ele>1942</ele>
<time>2003-08-24T09:40:06Z</time>
</trkpt>
<trkpt lat="46.5592166666667" lon="13.2995">
<ele>1938</ele>
<time>2003-08-24T09:40:41Z</time>
</trkpt>
<trkpt lat="46.5592" lon="13.2996833333333">
<ele>1931</ele>
<time>2003-08-24T09:41:37Z</time>
</trkpt>
<trkpt lat="46.5591833333333" lon="13.2999166666667">
<ele>1924</ele>
<time>2003-08-24T09:42:15Z</time>
</trkpt>
<trkpt lat="46.5590833333333" lon="13.3">
<ele>1915</ele>
<time>2003-08-24T09:43:29Z</time>
</trkpt>
<trkpt lat="46.5590333333333" lon="13.3002166666667">
<ele>1913</ele>
<time>2003-08-24T09:43:47Z</time>
</trkpt>
<trkpt lat="46.55895" lon="13.3003666666667">
<ele>1909</ele>
<time>2003-08-24T09:45:25Z</time>
</trkpt>
<trkpt lat="46.5588333333333" lon="13.3005">
<ele>1910</ele>
<time>2003-08-24T09:46:43Z</time>
</trkpt>
<trkpt lat="46.55875" lon="13.3006166666667">
<ele>1904</ele>
<time>2003-08-24T09:47:31Z</time>
</trkpt>
<trkpt lat="46.5586833333333" lon="13.3005">
<ele>1896</ele>
<time>2003-08-24T09:49:17Z</time>
</trkpt>
<trkpt lat="46.55855" lon="13.3005">
<ele>1886</ele>
<time>2003-08-24T09:50:37Z</time>
</trkpt>
<trkpt lat="46.5584333333333" lon="13.3004333333333">
<ele>1877</ele>
<time>2003-08-24T09:52:22Z</time>
</trkpt>
<trkpt lat="46.5582833333333" lon="13.3005666666667">
<ele>1873</ele>
<time>2003-08-24T09:52:43Z</time>
</trkpt>
<trkpt lat="46.5581666666667" lon="13.3007166666667">
<ele>1867</ele>
<time>2003-08-24T09:53:22Z</time>
</trkpt>
<trkpt lat="46.55805" lon="13.3009">
<ele>1859</ele>
<time>2003-08-24T09:53:54Z</time>
</trkpt>
<trkpt lat="46.5579333333333" lon="13.3011166666667">
<ele>1855</ele>
<time>2003-08-24T09:54:20Z</time>
</trkpt>
<trkpt lat="46.5578333333333" lon="13.3013166666667">
<ele>1851</ele>
<time>2003-08-24T09:54:43Z</time>
</trkpt>
<trkpt lat="46.5577166666667" lon="13.3015">
<ele>1848</ele>
<time>2003-08-24T09:55:02Z</time>
</trkpt>
<trkpt lat="46.5576166666667" lon="13.3016833333333">
<ele>1844</ele>
<time>2003-08-24T09:55:33Z</time>
</trkpt>
<trkpt lat="46.55755" lon="13.30185">
<ele>1850</ele>
<time>2003-08-24T09:56:12Z</time>
</trkpt>
<trkpt lat="46.5574166666667" lon="13.3019166666667">
<ele>1856</ele>
<time>2003-08-24T09:57:27Z</time>
</trkpt>
<trkpt lat="46.5574333333333" lon="13.3021">
<ele>1861</ele>
<time>2003-08-24T09:59:37Z</time>
</trkpt>
<trkpt lat="46.5573833333333" lon="13.3023166666667">
<ele>1862</ele>
<time>2003-08-24T10:00:47Z</time>
</trkpt>
<trkpt lat="46.5572833333333" lon="13.3025166666667">
<ele>1869</ele>
<time>2003-08-24T10:01:29Z</time>
</trkpt>
<trkpt lat="46.5572833333333" lon="13.3026166666667">
<ele>1874</ele>
<time>2003-08-24T10:03:37Z</time>
</trkpt>
<trkpt lat="46.5572333333333" lon="13.3026833333333">
<ele>1878</ele>
<time>2003-08-24T10:06:58Z</time>
</trkpt>
<trkpt lat="46.5571333333333" lon="13.3027">
<ele>1884</ele>
<time>2003-08-24T10:08:09Z</time>
</trkpt>
<trkpt lat="46.5571166666667" lon="13.30285">
<ele>1888</ele>
<time>2003-08-24T10:09:06Z</time>
</trkpt>
<trkpt lat="46.5570833333333" lon="13.30305">
<ele>1885</ele>
<time>2003-08-24T10:11:00Z</time>
</trkpt>
<trkpt lat="46.5570666666667" lon="13.3032">
<ele>1880</ele>
<time>2003-08-24T10:11:47Z</time>
</trkpt>
<trkpt lat="46.5569666666667" lon="13.3033333333333">
<ele>1872</ele>
<time>2003-08-24T10:12:17Z</time>
</trkpt>
<trkpt lat="46.5569166666667" lon="13.3035833333333">
<ele>1871</ele>
<time>2003-08-24T10:12:38Z</time>
</trkpt>
<trkpt lat="46.5569" lon="13.3038">
<ele>1867</ele>
<time>2003-08-24T10:13:47Z</time>
</trkpt>
<trkpt lat="46.5568333333333" lon="13.30405">
<ele>1862</ele>
<time>2003-08-24T10:14:17Z</time>
</trkpt>
<trkpt lat="46.5566833333333" lon="13.3040833333333">
<ele>1856</ele>
<time>2003-08-24T10:14:49Z</time>
</trkpt>
<trkpt lat="46.5565166666667" lon="13.3041166666667">
<ele>1847</ele>
<time>2003-08-24T10:15:16Z</time>
</trkpt>
<trkpt lat="46.5563166666667" lon="13.30415">
<ele>1845</ele>
<time>2003-08-24T10:15:40Z</time>
</trkpt>
<trkpt lat="46.5562" lon="13.3041833333333">
<ele>1841</ele>
<time>2003-08-24T10:16:33Z</time>
</trkpt>
<trkpt lat="46.5560833333333" lon="13.30435">
<ele>1834</ele>
<time>2003-08-24T10:17:01Z</time>
</trkpt>
<trkpt lat="46.5560666666667" lon="13.3046">
<ele>1832</ele>
<time>2003-08-24T10:17:24Z</time>
</trkpt>
<trkpt lat="46.5561333333333" lon="13.3048333333333">
<ele>1830</ele>
<time>2003-08-24T10:17:48Z</time>
</trkpt>
<trkpt lat="46.5560833333333" lon="13.3049833333333">
<ele>1830</ele>
<time>2003-08-24T10:19:05Z</time>
</trkpt>
<trkpt lat="46.55595" lon="13.30515">
<ele>1822</ele>
<time>2003-08-24T10:19:30Z</time>
</trkpt>
<trkpt lat="46.5558666666667" lon="13.30535">
<ele>1818</ele>
<time>2003-08-24T10:19:56Z</time>
</trkpt>
<trkpt lat="46.5558333333333" lon="13.3055">
<ele>1813</ele>
<time>2003-08-24T10:21:03Z</time>
</trkpt>
<trkpt lat="46.5557666666667" lon="13.3056833333333">
<ele>1806</ele>
<time>2003-08-24T10:21:34Z</time>
</trkpt>
<trkpt lat="46.5557" lon="13.3058666666667">
<ele>1800</ele>
<time>2003-08-24T10:22:14Z</time>
</trkpt>
<trkpt lat="46.55555" lon="13.3060166666667">
<ele>1792</ele>
<time>2003-08-24T10:22:43Z</time>
</trkpt>
<trkpt lat="46.5554166666667" lon="13.3061833333333">
<ele>1790</ele>
<time>2003-08-24T10:23:05Z</time>
</trkpt>
<trkpt lat="46.5553" lon="13.3063333333333">
<ele>1785</ele>
<time>2003-08-24T10:23:32Z</time>
</trkpt>
<trkpt lat="46.55515" lon="13.3065">
<ele>1784</ele>
<time>2003-08-24T10:23:51Z</time>
</trkpt>
<trkpt lat="46.555" lon="13.3066333333333">
<ele>1784</ele>
<time>2003-08-24T10:24:11Z</time>
</trkpt>
<trkpt lat="46.55485" lon="13.3066333333333">
<ele>1784</ele>
<time>2003-08-24T10:24:38Z</time>
</trkpt>
<trkpt lat="46.5547666666667" lon="13.3067833333333">
<ele>1778</ele>
<time>2003-08-24T10:25:19Z</time>
</trkpt>
<trkpt lat="46.5547" lon="13.3069833333333">
<ele>1773</ele>
<time>2003-08-24T10:25:44Z</time>
</trkpt>
<trkpt lat="46.5547" lon="13.3072166666667">
<ele>1768</ele>
<time>2003-08-24T10:26:05Z</time>
</trkpt>
<trkpt lat="46.5547" lon="13.3074666666667">
<ele>1764</ele>
<time>2003-08-24T10:26:24Z</time>
</trkpt>
<trkpt lat="46.5546166666667" lon="13.3077">
<ele>1763</ele>
<time>2003-08-24T10:26:42Z</time>
</trkpt>
<trkpt lat="46.55455" lon="13.3079333333333">
<ele>1763</ele>
<time>2003-08-24T10:27:02Z</time>
</trkpt>
<trkpt lat="46.55445" lon="13.30815">
<ele>1763</ele>
<time>2003-08-24T10:27:44Z</time>
</trkpt>
<trkpt lat="46.55445" lon="13.3084166666667">
<ele>1758</ele>
<time>2003-08-24T10:28:38Z</time>
</trkpt>
<trkpt lat="46.55435" lon="13.3085833333333">
<ele>1755</ele>
<time>2003-08-24T10:29:10Z</time>
</trkpt>
<trkpt lat="46.5543666666667" lon="13.3088166666667">
<ele>1750</ele>
<time>2003-08-24T10:29:35Z</time>
</trkpt>
<trkpt lat="46.5542" lon="13.3090166666667">
<ele>1743</ele>
<time>2003-08-24T10:38:16Z</time>
</trkpt>
<trkpt lat="46.5540666666667" lon="13.3092">
<ele>1743</ele>
<time>2003-08-24T10:38:48Z</time>
</trkpt>
<trkpt lat="46.5539333333333" lon="13.3093833333333">
<ele>1741</ele>
<time>2003-08-24T10:39:16Z</time>
</trkpt>
<trkpt lat="46.5539333333333" lon="13.30955">
<ele>1735</ele>
<time>2003-08-24T10:39:53Z</time>
</trkpt>
<trkpt lat="46.5539" lon="13.3097833333333">
<ele>1733</ele>
<time>2003-08-24T10:40:28Z</time>
</trkpt>
<trkpt lat="46.5538333333333" lon="13.31005">
<ele>1730</ele>
<time>2003-08-24T10:40:46Z</time>
</trkpt>
<trkpt lat="46.5537" lon="13.3101666666667">
<ele>1724</ele>
<time>2003-08-24T10:41:20Z</time>
</trkpt>
<trkpt lat="46.5537" lon="13.3103">
<ele>1718</ele>
<time>2003-08-24T10:41:39Z</time>
</trkpt>
<trkpt lat="46.5537666666667" lon="13.3105666666667">
<ele>1716</ele>
<time>2003-08-24T10:41:56Z</time>
</trkpt>
<trkpt lat="46.5536833333333" lon="13.31075">
<ele>1716</ele>
<time>2003-08-24T10:42:28Z</time>
</trkpt>
<trkpt lat="46.5535833333333" lon="13.3109833333333">
<ele>1718</ele>
<time>2003-08-24T10:42:46Z</time>
</trkpt>
<trkpt lat="46.5535333333333" lon="13.31125">
<ele>1715</ele>
<time>2003-08-24T10:43:07Z</time>
</trkpt>
<trkpt lat="46.5534333333333" lon="13.3114666666667">
<ele>1711</ele>
<time>2003-08-24T10:43:48Z</time>
</trkpt>
<trkpt lat="46.5533" lon="13.3115833333333">
<ele>1706</ele>
<time>2003-08-24T10:44:30Z</time>
</trkpt>
<trkpt lat="46.55325" lon="13.31185">
<ele>1703</ele>
<time>2003-08-24T10:44:52Z</time>
</trkpt>
<trkpt lat="46.55325" lon="13.3121333333333">
<ele>1700</ele>
<time>2003-08-24T10:45:09Z</time>
</trkpt>
<trkpt lat="46.5532333333333" lon="13.3123666666667">
<ele>1699</ele>
<time>2003-08-24T10:45:25Z</time>
</trkpt>
<trkpt lat="46.5531333333333" lon="13.3125333333333">
<ele>1696</ele>
<time>2003-08-24T10:46:06Z</time>
</trkpt>
<trkpt lat="46.55305" lon="13.3126833333333">
<ele>1693</ele>
<time>2003-08-24T10:46:25Z</time>
</trkpt>
<trkpt lat="46.5528666666667" lon="13.3127333333333">
<ele>1693</ele>
<time>2003-08-24T10:46:43Z</time>
</trkpt>
<trkpt lat="46.5528833333333" lon="13.3127666666667">
<ele>1693</ele>
<time>2003-08-24T10:49:23Z</time>
</trkpt>
<trkpt lat="46.5528166666667" lon="13.3129166666667">
<ele>1691</ele>
<time>2003-08-24T10:50:24Z</time>
</trkpt>
<trkpt lat="46.5527666666667" lon="13.3132">
<ele>1691</ele>
<time>2003-08-24T10:50:42Z</time>
</trkpt>
<trkpt lat="46.5527" lon="13.3134">
<ele>1690</ele>
<time>2003-08-24T10:51:17Z</time>
</trkpt>
<trkpt lat="46.5525833333333" lon="13.3135833333333">
<ele>1692</ele>
<time>2003-08-24T10:51:36Z</time>
</trkpt>
<trkpt lat="46.5524666666667" lon="13.3138">
<ele>1692</ele>
<time>2003-08-24T10:51:52Z</time>
</trkpt>
<trkpt lat="46.5524333333333" lon="13.31405">
<ele>1692</ele>
<time>2003-08-24T10:52:11Z</time>
</trkpt>
<trkpt lat="46.5524166666667" lon="13.3143166666667">
<ele>1690</ele>
<time>2003-08-24T10:52:31Z</time>
</trkpt>
<trkpt lat="46.5524" lon="13.3146">
<ele>1688</ele>
<time>2003-08-24T10:52:48Z</time>
</trkpt>
<trkpt lat="46.5524166666667" lon="13.3148333333333">
<ele>1686</ele>
<time>2003-08-24T10:53:22Z</time>
</trkpt>
<trkpt lat="46.5524333333333" lon="13.3150833333333">
<ele>1682</ele>
<time>2003-08-24T10:53:40Z</time>
</trkpt>
<trkpt lat="46.5524333333333" lon="13.3153166666667">
<ele>1681</ele>
<time>2003-08-24T10:54:25Z</time>
</trkpt>
<trkpt lat="46.5525166666667" lon="13.3155333333333">
<ele>1681</ele>
<time>2003-08-24T10:58:56Z</time>
</trkpt>
<trkpt lat="46.5526333333333" lon="13.31575">
<ele>1684</ele>
<time>2003-08-24T10:59:20Z</time>
</trkpt>
<trkpt lat="46.5527833333333" lon="13.3159">
<ele>1688</ele>
<time>2003-08-24T10:59:46Z</time>
</trkpt>
<trkpt lat="46.5529166666667" lon="13.3160666666667">
<ele>1693</ele>
<time>2003-08-24T11:00:13Z</time>
</trkpt>
<trkpt lat="46.5530333333333" lon="13.3162166666667">
<ele>1698</ele>
<time>2003-08-24T11:01:02Z</time>
</trkpt>
<trkpt lat="46.55315" lon="13.3163666666667">
<ele>1702</ele>
<time>2003-08-24T11:01:54Z</time>
</trkpt>
<trkpt lat="46.5533" lon="13.3164833333333">
<ele>1706</ele>
<time>2003-08-24T11:02:22Z</time>
</trkpt>
<trkpt lat="46.5534666666667" lon="13.31655">
<ele>1710</ele>
<time>2003-08-24T11:02:55Z</time>
</trkpt>
<trkpt lat="46.5535833333333" lon="13.3167166666667">
<ele>1715</ele>
<time>2003-08-24T11:03:26Z</time>
</trkpt>
<trkpt lat="46.55365" lon="13.3169333333333">
<ele>1716</ele>
<time>2003-08-24T11:03:49Z</time>
</trkpt>
<trkpt lat="46.5537333333333" lon="13.31715">
<ele>1721</ele>
<time>2003-08-24T11:04:20Z</time>
</trkpt>
<trkpt lat="46.5537333333333" lon="13.3173666666667">
<ele>1725</ele>
<time>2003-08-24T11:05:14Z</time>
</trkpt>
<trkpt lat="46.5535833333333" lon="13.31745">
<ele>1730</ele>
<time>2003-08-24T11:05:40Z</time>
</trkpt>
<trkpt lat="46.5534333333333" lon="13.3175833333333">
<ele>1735</ele>
<time>2003-08-24T11:06:15Z</time>
</trkpt>
<trkpt lat="46.5533166666667" lon="13.3174333333333">
<ele>1741</ele>
<time>2003-08-24T11:06:53Z</time>
</trkpt>
<trkpt lat="46.5532333333333" lon="13.3173">
<ele>1743</ele>
<time>2003-08-24T11:08:02Z</time>
</trkpt>
<trkpt lat="46.5531" lon="13.3173166666667">
<ele>1747</ele>
<time>2003-08-24T11:08:41Z</time>
</trkpt>
<trkpt lat="46.5530166666667" lon="13.3174666666667">
<ele>1751</ele>
<time>2003-08-24T11:09:07Z</time>
</trkpt>
<trkpt lat="46.553" lon="13.3177">
<ele>1755</ele>
<time>2003-08-24T11:09:33Z</time>
</trkpt>
<trkpt lat="46.5530333333333" lon="13.3179333333333">
<ele>1756</ele>
<time>2003-08-24T11:09:53Z</time>
</trkpt>
<trkpt lat="46.5529333333333" lon="13.3181333333333">
<ele>1757</ele>
<time>2003-08-24T11:10:12Z</time>
</trkpt>
<trkpt lat="46.5528" lon="13.3182166666667">
<ele>1758</ele>
<time>2003-08-24T11:11:16Z</time>
</trkpt>
<trkpt lat="46.55265" lon="13.31835">
<ele>1760</ele>
<time>2003-08-24T11:11:34Z</time>
</trkpt>
<trkpt lat="46.5524833333333" lon="13.3185">
<ele>1761</ele>
<time>2003-08-24T11:11:50Z</time>
</trkpt>
<trkpt lat="46.5523333333333" lon="13.3186">
<ele>1763</ele>
<time>2003-08-24T11:12:09Z</time>
</trkpt>
<trkpt lat="46.5522" lon="13.3187833333333">
<ele>1767</ele>
<time>2003-08-24T11:12:30Z</time>
</trkpt>
<trkpt lat="46.55205" lon="13.3189333333333">
<ele>1770</ele>
<time>2003-08-24T11:12:53Z</time>
</trkpt>
<trkpt lat="46.5521" lon="13.3191666666667">
<ele>1775</ele>
<time>2003-08-24T11:13:20Z</time>
</trkpt>
<trkpt lat="46.5521" lon="13.3194166666667">
<ele>1780</ele>
<time>2003-08-24T11:13:46Z</time>
</trkpt>
<trkpt lat="46.5521" lon="13.3196">
<ele>1784</ele>
<time>2003-08-24T11:14:18Z</time>
</trkpt>
<trkpt lat="46.5522" lon="13.3197666666667">
<ele>1790</ele>
<time>2003-08-24T11:14:55Z</time>
</trkpt>
<trkpt lat="46.5523333333333" lon="13.31985">
<ele>1794</ele>
<time>2003-08-24T11:16:08Z</time>
</trkpt>
<trkpt lat="46.5524" lon="13.3199333333333">
<ele>1801</ele>
<time>2003-08-24T11:16:42Z</time>
</trkpt>
<trkpt lat="46.5523166666667" lon="13.3201333333333">
<ele>1805</ele>
<time>2003-08-24T11:17:07Z</time>
</trkpt>
<trkpt lat="46.55225" lon="13.3203166666667">
<ele>1810</ele>
<time>2003-08-24T11:17:36Z</time>
</trkpt>
<trkpt lat="46.55225" lon="13.3205166666667">
<ele>1814</ele>
<time>2003-08-24T11:18:11Z</time>
</trkpt>
<trkpt lat="46.5521333333333" lon="13.3207333333333">
<ele>1815</ele>
<time>2003-08-24T11:18:28Z</time>
</trkpt>
<trkpt lat="46.55205" lon="13.32095">
<ele>1817</ele>
<time>2003-08-24T11:18:46Z</time>
</trkpt>
<trkpt lat="46.55195" lon="13.3211833333333">
<ele>1820</ele>
<time>2003-08-24T11:19:06Z</time>
</trkpt>
<trkpt lat="46.5519666666667" lon="13.3214166666667">
<ele>1825</ele>
<time>2003-08-24T11:19:28Z</time>
</trkpt>
<trkpt lat="46.5520166666667" lon="13.32165">
<ele>1826</ele>
<time>2003-08-24T11:20:03Z</time>
</trkpt>
<trkpt lat="46.5521333333333" lon="13.3218166666667">
<ele>1833</ele>
<time>2003-08-24T11:31:01Z</time>
</trkpt>
<trkpt lat="46.5521333333333" lon="13.3218166666667">
<ele>1834</ele>
<time>2003-08-24T11:32:39Z</time>
</trkpt>
<trkpt lat="46.5521833333333" lon="13.3218166666667">
<ele>1835</ele>
<time>2003-08-24T12:36:06Z</time>
</trkpt>
<trkpt lat="46.55205" lon="13.3217666666667">
<ele>1834</ele>
<time>2003-08-24T12:38:58Z</time>
</trkpt>
<trkpt lat="46.5519833333333" lon="13.3216333333333">
<ele>1831</ele>
<time>2003-08-24T12:40:03Z</time>
</trkpt>
<trkpt lat="46.5518333333333" lon="13.3216666666667">
<ele>1828</ele>
<time>2003-08-24T12:41:17Z</time>
</trkpt>
<trkpt lat="46.5516833333333" lon="13.3216666666667">
<ele>1826</ele>
<time>2003-08-24T12:41:50Z</time>
</trkpt>
<trkpt lat="46.5515" lon="13.3216666666667">
<ele>1824</ele>
<time>2003-08-24T12:42:50Z</time>
</trkpt>
<trkpt lat="46.5513333333333" lon="13.3215833333333">
<ele>1822</ele>
<time>2003-08-24T12:43:11Z</time>
</trkpt>
<trkpt lat="46.5512" lon="13.3215166666667">
<ele>1818</ele>
<time>2003-08-24T12:43:32Z</time>
</trkpt>
<trkpt lat="46.5510333333333" lon="13.3214833333333">
<ele>1809</ele>
<time>2003-08-24T12:43:56Z</time>
</trkpt>
<trkpt lat="46.5508333333333" lon="13.3214833333333">
<ele>1803</ele>
<time>2003-08-24T12:44:19Z</time>
</trkpt>
<trkpt lat="46.5507" lon="13.32135">
<ele>1800</ele>
<time>2003-08-24T12:45:24Z</time>
</trkpt>
<trkpt lat="46.5506166666667" lon="13.3211333333333">
<ele>1798</ele>
<time>2003-08-24T12:45:47Z</time>
</trkpt>
<trkpt lat="46.5506166666667" lon="13.3208833333333">
<ele>1796</ele>
<time>2003-08-24T12:46:59Z</time>
</trkpt>
<trkpt lat="46.5506833333333" lon="13.3206166666667">
<ele>1793</ele>
<time>2003-08-24T12:47:23Z</time>
</trkpt>
<trkpt lat="46.5505666666667" lon="13.3205">
<ele>1787</ele>
<time>2003-08-24T12:48:06Z</time>
</trkpt>
<trkpt lat="46.5504166666667" lon="13.3204666666667">
<ele>1782</ele>
<time>2003-08-24T12:48:37Z</time>
</trkpt>
<trkpt lat="46.5502333333333" lon="13.3203666666667">
<ele>1780</ele>
<time>2003-08-24T12:49:05Z</time>
</trkpt>
<trkpt lat="46.5500333333333" lon="13.32035">
<ele>1779</ele>
<time>2003-08-24T12:51:11Z</time>
</trkpt>
<trkpt lat="46.54995" lon="13.3203666666667">
<ele>1779</ele>
<time>2003-08-24T12:51:39Z</time>
</trkpt>
<trkpt lat="46.5498" lon="13.3205">
<ele>1775</ele>
<time>2003-08-24T12:52:03Z</time>
</trkpt>
<trkpt lat="46.54965" lon="13.3205">
<ele>1770</ele>
<time>2003-08-24T12:52:29Z</time>
</trkpt>
<trkpt lat="46.5494333333333" lon="13.32045">
<ele>1766</ele>
<time>2003-08-24T12:52:54Z</time>
</trkpt>
<trkpt lat="46.5492833333333" lon="13.3203833333333">
<ele>1763</ele>
<time>2003-08-24T12:53:23Z</time>
</trkpt>
<trkpt lat="46.5491833333333" lon="13.3205">
<ele>1758</ele>
<time>2003-08-24T12:54:42Z</time>
</trkpt>
<trkpt lat="46.5491333333333" lon="13.3207333333333">
<ele>1756</ele>
<time>2003-08-24T12:55:10Z</time>
</trkpt>
<trkpt lat="46.549" lon="13.3208333333333">
<ele>1755</ele>
<time>2003-08-24T12:55:29Z</time>
</trkpt>
<trkpt lat="46.54895" lon="13.3207333333333">
<ele>1753</ele>
<time>2003-08-24T12:56:43Z</time>
</trkpt>
<trkpt lat="46.5488" lon="13.3205833333333">
<ele>1747</ele>
<time>2003-08-24T12:57:08Z</time>
</trkpt>
<trkpt lat="46.5486" lon="13.3205833333333">
<ele>1739</ele>
<time>2003-08-24T12:57:37Z</time>
</trkpt>
<trkpt lat="46.5484333333333" lon="13.3204666666667">
<ele>1734</ele>
<time>2003-08-24T12:58:03Z</time>
</trkpt>
<trkpt lat="46.5482833333333" lon="13.3203666666667">
<ele>1730</ele>
<time>2003-08-24T12:58:23Z</time>
</trkpt>
<trkpt lat="46.5481" lon="13.3202166666667">
<ele>1729</ele>
<time>2003-08-24T12:58:43Z</time>
</trkpt>
<trkpt lat="46.5481" lon="13.3201666666667">
<ele>1727</ele>
<time>2003-08-24T12:59:50Z</time>
</trkpt>
<trkpt lat="46.548" lon="13.3199">
<ele>1722</ele>
<time>2003-08-24T13:00:12Z</time>
</trkpt>
<trkpt lat="46.5479166666667" lon="13.3197">
<ele>1715</ele>
<time>2003-08-24T13:00:47Z</time>
</trkpt>
<trkpt lat="46.5477666666667" lon="13.3195666666667">
<ele>1711</ele>
<time>2003-08-24T13:01:11Z</time>
</trkpt>
<trkpt lat="46.5478333333333" lon="13.31935">
<ele>1704</ele>
<time>2003-08-24T13:05:59Z</time>
</trkpt>
<trkpt lat="46.5478333333333" lon="13.31915">
<ele>1698</ele>
<time>2003-08-24T13:06:24Z</time>
</trkpt>
<trkpt lat="46.5479833333333" lon="13.3191833333333">
<ele>1691</ele>
<time>2003-08-24T13:06:46Z</time>
</trkpt>
<trkpt lat="46.54815" lon="13.3191666666667">
<ele>1687</ele>
<time>2003-08-24T13:07:06Z</time>
</trkpt>
<trkpt lat="46.5482333333333" lon="13.31905">
<ele>1681</ele>
<time>2003-08-24T13:07:33Z</time>
</trkpt>
<trkpt lat="46.5483166666667" lon="13.3188833333333">
<ele>1675</ele>
<time>2003-08-24T13:07:57Z</time>
</trkpt>
<trkpt lat="46.5483166666667" lon="13.3186333333333">
<ele>1673</ele>
<time>2003-08-24T13:08:19Z</time>
</trkpt>
<trkpt lat="46.5483833333333" lon="13.3183833333333">
<ele>1667</ele>
<time>2003-08-24T13:08:40Z</time>
</trkpt>
<trkpt lat="46.5482833333333" lon="13.3182166666667">
<ele>1662</ele>
<time>2003-08-24T13:09:03Z</time>
</trkpt>
<trkpt lat="46.5482166666667" lon="13.31805">
<ele>1655</ele>
<time>2003-08-24T13:09:32Z</time>
</trkpt>
<trkpt lat="46.5481666666667" lon="13.3177833333333">
<ele>1651</ele>
<time>2003-08-24T13:09:53Z</time>
</trkpt>
<trkpt lat="46.5481666666667" lon="13.3175333333333">
<ele>1647</ele>
<time>2003-08-24T13:10:13Z</time>
</trkpt>
<trkpt lat="46.5482166666667" lon="13.3173">
<ele>1644</ele>
<time>2003-08-24T13:10:33Z</time>
</trkpt>
<trkpt lat="46.5482833333333" lon="13.3170666666667">
<ele>1639</ele>
<time>2003-08-24T13:10:55Z</time>
</trkpt>
<trkpt lat="46.5483166666667" lon="13.3168166666667">
<ele>1635</ele>
<time>2003-08-24T13:11:21Z</time>
</trkpt>
<trkpt lat="46.5483833333333" lon="13.3165833333333">
<ele>1629</ele>
<time>2003-08-24T13:12:07Z</time>
</trkpt>
<trkpt lat="46.5485166666667" lon="13.3164166666667">
<ele>1628</ele>
<time>2003-08-24T13:12:25Z</time>
</trkpt>
<trkpt lat="46.5485833333333" lon="13.3161333333333">
<ele>1624</ele>
<time>2003-08-24T13:12:44Z</time>
</trkpt>
<trkpt lat="46.5486833333333" lon="13.3160166666667">
<ele>1621</ele>
<time>2003-08-24T13:13:21Z</time>
</trkpt>
<trkpt lat="46.5488166666667" lon="13.3158833333333">
<ele>1622</ele>
<time>2003-08-24T13:13:50Z</time>
</trkpt>
<trkpt lat="46.5489833333333" lon="13.31575">
<ele>1623</ele>
<time>2003-08-24T13:14:15Z</time>
</trkpt>
<trkpt lat="46.54905" lon="13.3157166666667">
<ele>1623</ele>
<time>2003-08-24T13:14:54Z</time>
</trkpt>
<trkpt lat="46.5491333333333" lon="13.3159166666667">
<ele>1623</ele>
<time>2003-08-24T13:15:15Z</time>
</trkpt>
<trkpt lat="46.5491166666667" lon="13.3158166666667">
<ele>1621</ele>
<time>2003-08-24T13:16:49Z</time>
</trkpt>
<trkpt lat="46.5493" lon="13.3158333333333">
<ele>1619</ele>
<time>2003-08-24T13:17:04Z</time>
</trkpt>
<trkpt lat="46.5494166666667" lon="13.3156166666667">
<ele>1617</ele>
<time>2003-08-24T13:17:23Z</time>
</trkpt>
<trkpt lat="46.5494" lon="13.3153666666667">
<ele>1615</ele>
<time>2003-08-24T13:17:39Z</time>
</trkpt>
<trkpt lat="46.5493333333333" lon="13.3151333333333">
<ele>1612</ele>
<time>2003-08-24T13:17:55Z</time>
</trkpt>
<trkpt lat="46.5493333333333" lon="13.3148166666667">
<ele>1609</ele>
<time>2003-08-24T13:18:13Z</time>
</trkpt>
<trkpt lat="46.5494" lon="13.3146">
<ele>1607</ele>
<time>2003-08-24T13:18:28Z</time>
</trkpt>
<trkpt lat="46.5495" lon="13.3143833333333">
<ele>1606</ele>
<time>2003-08-24T13:18:57Z</time>
</trkpt>
<trkpt lat="46.54965" lon="13.3143">
<ele>1606</ele>
<time>2003-08-24T13:19:23Z</time>
</trkpt>
<trkpt lat="46.5498" lon="13.31415">
<ele>1604</ele>
<time>2003-08-24T13:19:38Z</time>
</trkpt>
<trkpt lat="46.5498" lon="13.3138666666667">
<ele>1602</ele>
<time>2003-08-24T13:19:55Z</time>
</trkpt>
<trkpt lat="46.54985" lon="13.3136">
<ele>1598</ele>
<time>2003-08-24T13:20:13Z</time>
</trkpt>
<trkpt lat="46.5499166666667" lon="13.3133666666667">
<ele>1598</ele>
<time>2003-08-24T13:20:50Z</time>
</trkpt>
<trkpt lat="46.5499" lon="13.31315">
<ele>1596</ele>
<time>2003-08-24T13:21:25Z</time>
</trkpt>
<trkpt lat="46.5500333333333" lon="13.3130666666667">
<ele>1595</ele>
<time>2003-08-24T13:22:41Z</time>
</trkpt>
<trkpt lat="46.5501166666667" lon="13.3128166666667">
<ele>1593</ele>
<time>2003-08-24T13:22:59Z</time>
</trkpt>
<trkpt lat="46.5501666666667" lon="13.31255">
<ele>1589</ele>
<time>2003-08-24T13:23:17Z</time>
</trkpt>
<trkpt lat="46.5502666666667" lon="13.3123333333333">
<ele>1587</ele>
<time>2003-08-24T13:23:33Z</time>
</trkpt>
<trkpt lat="46.5504" lon="13.3121833333333">
<ele>1586</ele>
<time>2003-08-24T13:24:15Z</time>
</trkpt>
<trkpt lat="46.55055" lon="13.3121333333333">
<ele>1582</ele>
<time>2003-08-24T13:24:39Z</time>
</trkpt>
<trkpt lat="46.5506333333333" lon="13.3119666666667">
<ele>1580</ele>
<time>2003-08-24T13:25:03Z</time>
</trkpt>
<trkpt lat="46.5505666666667" lon="13.3117166666667">
<ele>1579</ele>
<time>2003-08-24T13:25:23Z</time>
</trkpt>
<trkpt lat="46.55055" lon="13.3114666666667">
<ele>1575</ele>
<time>2003-08-24T13:25:44Z</time>
</trkpt>
<trkpt lat="46.5504" lon="13.3112166666667">
<ele>1571</ele>
<time>2003-08-24T13:26:02Z</time>
</trkpt>
<trkpt lat="46.55035" lon="13.3110166666667">
<ele>1567</ele>
<time>2003-08-24T13:28:38Z</time>
</trkpt>
<trkpt lat="46.55045" lon="13.3107666666667">
<ele>1565</ele>
<time>2003-08-24T13:28:53Z</time>
</trkpt>
<trkpt lat="46.5503166666667" lon="13.3105666666667">
<ele>1565</ele>
<time>2003-08-24T13:29:08Z</time>
</trkpt>
<trkpt lat="46.5501666666667" lon="13.3103666666667">
<ele>1565</ele>
<time>2003-08-24T13:29:22Z</time>
</trkpt>
<trkpt lat="46.5500333333333" lon="13.3101666666667">
<ele>1565</ele>
<time>2003-08-24T13:29:38Z</time>
</trkpt>
<trkpt lat="46.55" lon="13.3099333333333">
<ele>1567</ele>
<time>2003-08-24T13:29:54Z</time>
</trkpt>
<trkpt lat="46.5500333333333" lon="13.3096833333333">
<ele>1567</ele>
<time>2003-08-24T13:30:09Z</time>
</trkpt>
<trkpt lat="46.55" lon="13.3094">
<ele>1565</ele>
<time>2003-08-24T13:30:25Z</time>
</trkpt>
<trkpt lat="46.5499666666667" lon="13.3091166666667">
<ele>1565</ele>
<time>2003-08-24T13:30:40Z</time>
</trkpt>
<trkpt lat="46.54995" lon="13.3089333333333">
<ele>1562</ele>
<time>2003-08-24T13:32:17Z</time>
</trkpt>
<trkpt lat="46.5498" lon="13.30875">
<ele>1560</ele>
<time>2003-08-24T13:33:19Z</time>
</trkpt>
<trkpt lat="46.5497" lon="13.30855">
<ele>1555</ele>
<time>2003-08-24T13:33:36Z</time>
</trkpt>
<trkpt lat="46.5497" lon="13.3082333333333">
<ele>1553</ele>
<time>2003-08-24T13:33:52Z</time>
</trkpt>
<trkpt lat="46.5498166666667" lon="13.308">
<ele>1546</ele>
<time>2003-08-24T13:34:08Z</time>
</trkpt>
<trkpt lat="46.5499666666667" lon="13.3078333333333">
<ele>1543</ele>
<time>2003-08-24T13:34:23Z</time>
</trkpt>
<trkpt lat="46.55015" lon="13.3076833333333">
<ele>1541</ele>
<time>2003-08-24T13:34:38Z</time>
</trkpt>
<trkpt lat="46.5503166666667" lon="13.3075333333333">
<ele>1539</ele>
<time>2003-08-24T13:34:53Z</time>
</trkpt>
<trkpt lat="46.5504833333333" lon="13.3074333333333">
<ele>1539</ele>
<time>2003-08-24T13:35:08Z</time>
</trkpt>
<trkpt lat="46.5506333333333" lon="13.30725">
<ele>1542</ele>
<time>2003-08-24T13:35:25Z</time>
</trkpt>
<trkpt lat="46.5507833333333" lon="13.3070833333333">
<ele>1542</ele>
<time>2003-08-24T13:35:41Z</time>
</trkpt>
<trkpt lat="46.5508666666667" lon="13.30685">
<ele>1542</ele>
<time>2003-08-24T13:35:56Z</time>
</trkpt>
<trkpt lat="46.5509666666667" lon="13.3066166666667">
<ele>1545</ele>
<time>2003-08-24T13:36:12Z</time>
</trkpt>
<trkpt lat="46.5510166666667" lon="13.30635">
<ele>1545</ele>
<time>2003-08-24T13:36:27Z</time>
</trkpt>
<trkpt lat="46.5510833333333" lon="13.3061">
<ele>1546</ele>
<time>2003-08-24T13:36:42Z</time>
</trkpt>
<trkpt lat="46.5511166666667" lon="13.3058166666667">
<ele>1547</ele>
<time>2003-08-24T13:36:58Z</time>
</trkpt>
<trkpt lat="46.5511833333333" lon="13.3055666666667">
<ele>1545</ele>
<time>2003-08-24T13:37:13Z</time>
</trkpt>
<trkpt lat="46.5512166666667" lon="13.3053">
<ele>1543</ele>
<time>2003-08-24T13:37:27Z</time>
</trkpt>
<trkpt lat="46.5512833333333" lon="13.3050666666667">
<ele>1539</ele>
<time>2003-08-24T13:37:41Z</time>
</trkpt>
<trkpt lat="46.55145" lon="13.3049333333333">
<ele>1536</ele>
<time>2003-08-24T13:37:57Z</time>
</trkpt>
<trkpt lat="46.5515333333333" lon="13.30475">
<ele>1535</ele>
<time>2003-08-24T13:38:12Z</time>
</trkpt>
<trkpt lat="46.5515666666667" lon="13.30445">
<ele>1533</ele>
<time>2003-08-24T13:38:27Z</time>
</trkpt>
<trkpt lat="46.5516333333333" lon="13.3042">
<ele>1535</ele>
<time>2003-08-24T13:38:42Z</time>
</trkpt>
<trkpt lat="46.5516666666667" lon="13.30395">
<ele>1536</ele>
<time>2003-08-24T13:38:59Z</time>
</trkpt>
<trkpt lat="46.5516666666667" lon="13.3037166666667">
<ele>1537</ele>
<time>2003-08-24T13:39:18Z</time>
</trkpt>
<trkpt lat="46.55175" lon="13.3034833333333">
<ele>1540</ele>
<time>2003-08-24T13:39:37Z</time>
</trkpt>
<trkpt lat="46.5518666666667" lon="13.3032833333333">
<ele>1541</ele>
<time>2003-08-24T13:39:57Z</time>
</trkpt>
<trkpt lat="46.5520166666667" lon="13.3031166666667">
<ele>1542</ele>
<time>2003-08-24T13:40:17Z</time>
</trkpt>
<trkpt lat="46.5520833333333" lon="13.30285">
<ele>1543</ele>
<time>2003-08-24T13:40:36Z</time>
</trkpt>
<trkpt lat="46.5520833333333" lon="13.3025833333333">
<ele>1546</ele>
<time>2003-08-24T13:40:55Z</time>
</trkpt>
<trkpt lat="46.5521666666667" lon="13.3026666666667">
<ele>1547</ele>
<time>2003-08-24T13:41:15Z</time>
</trkpt>
<trkpt lat="46.55225" lon="13.30285">
<ele>1551</ele>
<time>2003-08-24T13:41:35Z</time>
</trkpt>
<trkpt lat="46.5522666666667" lon="13.3025833333333">
<ele>1553</ele>
<time>2003-08-24T13:41:57Z</time>
</trkpt>
<trkpt lat="46.5523166666667" lon="13.3023166666667">
<ele>1558</ele>
<time>2003-08-24T13:42:20Z</time>
</trkpt>
<trkpt lat="46.5523833333333" lon="13.3020666666667">
<ele>1562</ele>
<time>2003-08-24T13:42:41Z</time>
</trkpt>
<trkpt lat="46.5524333333333" lon="13.3018">
<ele>1564</ele>
<time>2003-08-24T13:43:01Z</time>
</trkpt>
<trkpt lat="46.55255" lon="13.3015666666667">
<ele>1566</ele>
<time>2003-08-24T13:43:19Z</time>
</trkpt>
<trkpt lat="46.5526166666667" lon="13.3013333333333">
<ele>1571</ele>
<time>2003-08-24T13:43:41Z</time>
</trkpt>
<trkpt lat="46.5527333333333" lon="13.3011333333333">
<ele>1575</ele>
<time>2003-08-24T13:44:03Z</time>
</trkpt>
<trkpt lat="46.5528" lon="13.3009666666667">
<ele>1576</ele>
<time>2003-08-24T13:45:04Z</time>
</trkpt>
<trkpt lat="46.5526666666667" lon="13.3008166666667">
<ele>1577</ele>
<time>2003-08-24T13:45:26Z</time>
</trkpt>
<trkpt lat="46.5526166666667" lon="13.3006166666667">
<ele>1581</ele>
<time>2003-08-24T13:48:53Z</time>
</trkpt>
<trkpt lat="46.5527333333333" lon="13.3004333333333">
<ele>1585</ele>
<time>2003-08-24T13:49:13Z</time>
</trkpt>
<trkpt lat="46.5527166666667" lon="13.3002166666667">
<ele>1586</ele>
<time>2003-08-24T13:49:51Z</time>
</trkpt>
<trkpt lat="46.5527166666667" lon="13.2999333333333">
<ele>1586</ele>
<time>2003-08-24T13:50:06Z</time>
</trkpt>
<trkpt lat="46.5527166666667" lon="13.29965">
<ele>1586</ele>
<time>2003-08-24T13:50:22Z</time>
</trkpt>
<trkpt lat="46.5527333333333" lon="13.2993833333333">
<ele>1588</ele>
<time>2003-08-24T13:50:39Z</time>
</trkpt>
<trkpt lat="46.5526666666667" lon="13.29915">
<ele>1588</ele>
<time>2003-08-24T13:51:08Z</time>
</trkpt>
<trkpt lat="46.5526166666667" lon="13.2989">
<ele>1589</ele>
<time>2003-08-24T13:51:22Z</time>
</trkpt>
<trkpt lat="46.5525833333333" lon="13.2986">
<ele>1589</ele>
<time>2003-08-24T13:51:38Z</time>
</trkpt>
<trkpt lat="46.5526333333333" lon="13.29835">
<ele>1590</ele>
<time>2003-08-24T13:51:54Z</time>
</trkpt>
<trkpt lat="46.55265" lon="13.2981">
<ele>1588</ele>
<time>2003-08-24T13:52:10Z</time>
</trkpt>
<trkpt lat="46.5527166666667" lon="13.2978333333333">
<ele>1587</ele>
<time>2003-08-24T13:52:25Z</time>
</trkpt>
<trkpt lat="46.5527666666667" lon="13.29755">
<ele>1589</ele>
<time>2003-08-24T13:52:41Z</time>
</trkpt>
<trkpt lat="46.5528666666667" lon="13.2973166666667">
<ele>1589</ele>
<time>2003-08-24T13:52:56Z</time>
</trkpt>
<trkpt lat="46.55295" lon="13.2971">
<ele>1589</ele>
<time>2003-08-24T13:53:14Z</time>
</trkpt>
<trkpt lat="46.5529833333333" lon="13.2968333333333">
<ele>1589</ele>
<time>2003-08-24T13:53:29Z</time>
</trkpt>
<trkpt lat="46.5530166666667" lon="13.29655">
<ele>1590</ele>
<time>2003-08-24T13:53:44Z</time>
</trkpt>
<trkpt lat="46.5530166666667" lon="13.2962666666667">
<ele>1591</ele>
<time>2003-08-24T13:53:59Z</time>
</trkpt>
<trkpt lat="46.5530166666667" lon="13.2960166666667">
<ele>1591</ele>
<time>2003-08-24T13:54:13Z</time>
</trkpt>
<trkpt lat="46.5530333333333" lon="13.29575">
<ele>1590</ele>
<time>2003-08-24T13:54:26Z</time>
</trkpt>
<trkpt lat="46.5530666666667" lon="13.29545">
<ele>1590</ele>
<time>2003-08-24T13:54:42Z</time>
</trkpt>
<trkpt lat="46.5530833333333" lon="13.2951666666667">
<ele>1589</ele>
<time>2003-08-24T13:54:57Z</time>
</trkpt>
<trkpt lat="46.5531333333333" lon="13.2949166666667">
<ele>1587</ele>
<time>2003-08-24T13:55:12Z</time>
</trkpt>
<trkpt lat="46.5531833333333" lon="13.2946666666667">
<ele>1586</ele>
<time>2003-08-24T13:55:26Z</time>
</trkpt>
<trkpt lat="46.5531666666667" lon="13.2944">
<ele>1587</ele>
<time>2003-08-24T13:55:41Z</time>
</trkpt>
<trkpt lat="46.5532333333333" lon="13.29415">
<ele>1590</ele>
<time>2003-08-24T13:55:59Z</time>
</trkpt>
<trkpt lat="46.5533" lon="13.2939333333333">
<ele>1592</ele>
<time>2003-08-24T13:56:36Z</time>
</trkpt>
<trkpt lat="46.5534" lon="13.2937166666667">
<ele>1592</ele>
<time>2003-08-24T13:56:52Z</time>
</trkpt>
<trkpt lat="46.5535166666667" lon="13.2935166666667">
<ele>1594</ele>
<time>2003-08-24T13:57:23Z</time>
</trkpt>
<trkpt lat="46.5536333333333" lon="13.2933">
<ele>1595</ele>
<time>2003-08-24T13:57:40Z</time>
</trkpt>
<trkpt lat="46.5537" lon="13.2930666666667">
<ele>1596</ele>
<time>2003-08-24T13:58:09Z</time>
</trkpt>
<trkpt lat="46.5537333333333" lon="13.2929166666667">
<ele>1594</ele>
<time>2003-08-24T13:59:24Z</time>
</trkpt>
<trkpt lat="46.55375" lon="13.2926833333333">
<ele>1594</ele>
<time>2003-08-24T14:00:11Z</time>
</trkpt>
<trkpt lat="46.5538" lon="13.2924">
<ele>1593</ele>
<time>2003-08-24T14:00:26Z</time>
</trkpt>
<trkpt lat="46.5538333333333" lon="13.2921">
<ele>1592</ele>
<time>2003-08-24T14:00:42Z</time>
</trkpt>
<trkpt lat="46.5538833333333" lon="13.29185">
<ele>1591</ele>
<time>2003-08-24T14:00:57Z</time>
</trkpt>
<trkpt lat="46.55395" lon="13.2915833333333">
<ele>1591</ele>
<time>2003-08-24T14:01:17Z</time>
</trkpt>
<trkpt lat="46.5539666666667" lon="13.2913333333333">
<ele>1589</ele>
<time>2003-08-24T14:01:32Z</time>
</trkpt>
<trkpt lat="46.5541166666667" lon="13.2911166666667">
<ele>1587</ele>
<time>2003-08-24T14:01:53Z</time>
</trkpt>
<trkpt lat="46.5542666666667" lon="13.2909333333333">
<ele>1586</ele>
<time>2003-08-24T14:02:08Z</time>
</trkpt>
<trkpt lat="46.55435" lon="13.2906833333333">
<ele>1585</ele>
<time>2003-08-24T14:02:23Z</time>
</trkpt>
<trkpt lat="46.5544166666667" lon="13.2904166666667">
<ele>1586</ele>
<time>2003-08-24T14:02:39Z</time>
</trkpt>
<trkpt lat="46.5545166666667" lon="13.2901666666667">
<ele>1586</ele>
<time>2003-08-24T14:02:55Z</time>
</trkpt>
<trkpt lat="46.5545833333333" lon="13.2899166666667">
<ele>1587</ele>
<time>2003-08-24T14:03:10Z</time>
</trkpt>
<trkpt lat="46.5545166666667" lon="13.2896666666667">
<ele>1587</ele>
<time>2003-08-24T14:03:25Z</time>
</trkpt>
<trkpt lat="46.5544833333333" lon="13.2894">
<ele>1588</ele>
<time>2003-08-24T14:03:40Z</time>
</trkpt>
<trkpt lat="46.5544333333333" lon="13.28915">
<ele>1588</ele>
<time>2003-08-24T14:03:54Z</time>
</trkpt>
<trkpt lat="46.5544" lon="13.2888833333333">
<ele>1590</ele>
<time>2003-08-24T14:04:10Z</time>
</trkpt>
<trkpt lat="46.5544" lon="13.28865">
<ele>1593</ele>
<time>2003-08-24T14:05:04Z</time>
</trkpt>
<trkpt lat="46.5544666666667" lon="13.2885">
<ele>1594</ele>
<time>2003-08-24T14:06:04Z</time>
</trkpt>
<trkpt lat="46.5546166666667" lon="13.2884">
<ele>1596</ele>
<time>2003-08-24T14:06:32Z</time>
</trkpt>
<trkpt lat="46.5546" lon="13.2881333333333">
<ele>1599</ele>
<time>2003-08-24T14:07:27Z</time>
</trkpt>
<trkpt lat="46.5546666666667" lon="13.2878833333333">
<ele>1603</ele>
<time>2003-08-24T14:07:47Z</time>
</trkpt>
<trkpt lat="46.5547166666667" lon="13.2876">
<ele>1606</ele>
<time>2003-08-24T14:08:06Z</time>
</trkpt>
<trkpt lat="46.5547166666667" lon="13.2873833333333">
<ele>1608</ele>
<time>2003-08-24T14:08:59Z</time>
</trkpt>
<trkpt lat="46.5547166666667" lon="13.2871333333333">
<ele>1610</ele>
<time>2003-08-24T14:09:35Z</time>
</trkpt>
<trkpt lat="46.5547166666667" lon="13.28685">
<ele>1612</ele>
<time>2003-08-24T14:09:53Z</time>
</trkpt>
<trkpt lat="46.5547166666667" lon="13.2865333333333">
<ele>1610</ele>
<time>2003-08-24T14:10:18Z</time>
</trkpt>
<trkpt lat="46.5547333333333" lon="13.2862833333333">
<ele>1609</ele>
<time>2003-08-24T14:10:31Z</time>
</trkpt>
<trkpt lat="46.5546333333333" lon="13.28605">
<ele>1608</ele>
<time>2003-08-24T14:10:46Z</time>
</trkpt>
<trkpt lat="46.5545" lon="13.2857666666667">
<ele>1608</ele>
<time>2003-08-24T14:11:04Z</time>
</trkpt>
<trkpt lat="46.5544" lon="13.2856833333333">
<ele>1609</ele>
<time>2003-08-24T14:11:29Z</time>
</trkpt>
<trkpt lat="46.5544166666667" lon="13.2857833333333">
<ele>1610</ele>
<time>2003-08-24T14:12:23Z</time>
</trkpt>
<trkpt lat="46.5543333333333" lon="13.2855166666667">
<ele>1610</ele>
<time>2003-08-24T14:12:41Z</time>
</trkpt>
<trkpt lat="46.5542666666667" lon="13.2854333333333">
<ele>1608</ele>
<time>2003-08-24T14:13:32Z</time>
</trkpt>
<trkpt lat="46.55425" lon="13.2851666666667">
<ele>1609</ele>
<time>2003-08-24T14:14:50Z</time>
</trkpt>
<trkpt lat="46.55415" lon="13.2848166666667">
<ele>1608</ele>
<time>2003-08-24T14:15:12Z</time>
</trkpt>
<trkpt lat="46.5540333333333" lon="13.2846">
<ele>1604</ele>
<time>2003-08-24T14:15:29Z</time>
</trkpt>
<trkpt lat="46.554" lon="13.2844166666667">
<ele>1605</ele>
<time>2003-08-24T14:16:16Z</time>
</trkpt>
<trkpt lat="46.5539833333333" lon="13.2840333333333">
<ele>1605</ele>
<time>2003-08-24T14:16:37Z</time>
</trkpt>
<trkpt lat="46.5539833333333" lon="13.2837">
<ele>1603</ele>
<time>2003-08-24T14:16:55Z</time>
</trkpt>
<trkpt lat="46.554" lon="13.28345">
<ele>1603</ele>
<time>2003-08-24T14:17:08Z</time>
</trkpt>
<trkpt lat="46.5541" lon="13.28315">
<ele>1602</ele>
<time>2003-08-24T14:17:24Z</time>
</trkpt>
<trkpt lat="46.55415" lon="13.2829">
<ele>1603</ele>
<time>2003-08-24T14:17:38Z</time>
</trkpt>
<trkpt lat="46.5542666666667" lon="13.2826833333333">
<ele>1600</ele>
<time>2003-08-24T14:17:52Z</time>
</trkpt>
<trkpt lat="46.5544166666667" lon="13.2825166666667">
<ele>1600</ele>
<time>2003-08-24T14:18:07Z</time>
</trkpt>
<trkpt lat="46.5545833333333" lon="13.2823833333333">
<ele>1596</ele>
<time>2003-08-24T14:18:22Z</time>
</trkpt>
<trkpt lat="46.55475" lon="13.2823">
<ele>1593</ele>
<time>2003-08-24T14:18:37Z</time>
</trkpt>
<trkpt lat="46.55495" lon="13.2822833333333">
<ele>1590</ele>
<time>2003-08-24T14:18:52Z</time>
</trkpt>
<trkpt lat="46.5551166666667" lon="13.2822166666667">
<ele>1588</ele>
<time>2003-08-24T14:19:07Z</time>
</trkpt>
<trkpt lat="46.5552666666667" lon="13.2820833333333">
<ele>1584</ele>
<time>2003-08-24T14:19:23Z</time>
</trkpt>
<trkpt lat="46.5554166666667" lon="13.2818833333333">
<ele>1579</ele>
<time>2003-08-24T14:19:39Z</time>
</trkpt>
<trkpt lat="46.5555666666667" lon="13.2817333333333">
<ele>1577</ele>
<time>2003-08-24T14:19:54Z</time>
</trkpt>
<trkpt lat="46.5557" lon="13.28155">
<ele>1574</ele>
<time>2003-08-24T14:20:09Z</time>
</trkpt>
<trkpt lat="46.5557666666667" lon="13.2812833333333">
<ele>1571</ele>
<time>2003-08-24T14:20:25Z</time>
</trkpt>
<trkpt lat="46.5558666666667" lon="13.2811">
<ele>1568</ele>
<time>2003-08-24T14:20:40Z</time>
</trkpt>
<trkpt lat="46.556" lon="13.2808833333333">
<ele>1567</ele>
<time>2003-08-24T14:20:54Z</time>
</trkpt>
<trkpt lat="46.5560833333333" lon="13.2806666666667">
<ele>1564</ele>
<time>2003-08-24T14:21:09Z</time>
</trkpt>
<trkpt lat="46.5561" lon="13.2804166666667">
<ele>1561</ele>
<time>2003-08-24T14:21:27Z</time>
</trkpt>
<trkpt lat="46.55605" lon="13.2801666666667">
<ele>1558</ele>
<time>2003-08-24T14:21:43Z</time>
</trkpt>
<trkpt lat="46.5561666666667" lon="13.28">
<ele>1555</ele>
<time>2003-08-24T14:22:00Z</time>
</trkpt>
<trkpt lat="46.55635" lon="13.2798666666667">
<ele>1551</ele>
<time>2003-08-24T14:22:18Z</time>
</trkpt>
<trkpt lat="46.5565166666667" lon="13.2797666666667">
<ele>1547</ele>
<time>2003-08-24T14:22:37Z</time>
</trkpt>
<trkpt lat="46.5566833333333" lon="13.2796833333333">
<ele>1543</ele>
<time>2003-08-24T14:22:57Z</time>
</trkpt>
<trkpt lat="46.5568666666667" lon="13.2796">
<ele>1540</ele>
<time>2003-08-24T14:23:12Z</time>
</trkpt>
<trkpt lat="46.5570166666667" lon="13.27945">
<ele>1537</ele>
<time>2003-08-24T14:23:28Z</time>
</trkpt>
<trkpt lat="46.5571833333333" lon="13.2793333333333">
<ele>1534</ele>
<time>2003-08-24T14:23:43Z</time>
</trkpt>
<trkpt lat="46.55725" lon="13.2791166666667">
<ele>1533</ele>
<time>2003-08-24T14:24:47Z</time>
</trkpt>
<trkpt lat="46.5573166666667" lon="13.2789166666667">
<ele>1530</ele>
<time>2003-08-24T14:25:04Z</time>
</trkpt>
<trkpt lat="46.5574333333333" lon="13.2787166666667">
<ele>1529</ele>
<time>2003-08-24T14:25:20Z</time>
</trkpt>
<trkpt lat="46.5575333333333" lon="13.27865">
<ele>1529</ele>
<time>2003-08-24T14:26:06Z</time>
</trkpt>
<trkpt lat="46.55765" lon="13.2787166666667">
<ele>1528</ele>
<time>2003-08-24T14:27:05Z</time>
</trkpt>
<trkpt lat="46.5576333333333" lon="13.2787166666667">
<ele>1528</ele>
<time>2003-08-24T18:25:41Z</time>
</trkpt>
</trkseg>
</trk>
</gpx>
